Thursday, October 02, 2014
00:27 UTC
  |  Log In   |  Register Free
Airport Search:

Yellowstone Regional Airport
(KCOD)

Yellowstone Regional Airport Diagram
No Airport Diagram Available

FAA data valid effective September 18, 2014 - November 13, 2014 (unless otherwise noted).

 
 
 
 
 
 
 
 
 
 
 
 
 
 

Current Aviation Weather for Yellowstone Regional Airport (KCOD)

The most recent METAR observation for KCOD was updated at: 0008
METAR Summary (Translated METAR)
KCOD
012355Z AUTO 03005KT 10SM FEW065 BKN075 08/02 A3000 RMK AO1 10110 20060 401300050 52007
KPOY
012355Z AUTO 00000KT 10SM SCT025 SCT040 BKN060 07/01 A2999 RMK AO2
(23 nm NE from KCOD)
KGEY
012353Z AUTO 31006KT 10SM FEW120 13/00 A2997 RMK AO2 SLP141 60000 T01330000 10150 20122 53009
(40.3 nm SE from KCOD)
TAF Summary (Translated TAF)
KCOD
011735Z 0118/0218 01007KT P6SM VCSH SCT025 BKN040 FM012100 28009KT P6SM VCSH SCT030 BKN050 FM020100 VRB05KT P6SM SCT080 FM020400 20006KT P6SM SKC FM020800 26014G22KT P6SM SCT130 AMD LTD TO CLD VIS AND WIND
  Airport Weather Conditions for KCOD

 Current Weather at COD
46° F
Mostly Cloudy
Northeast winds at 5.8 mph
COD NOAA Radar

Pressure: 30.00 in
Humidity: 66%
Wind: Northeast at 5.8 MPH (5 KT)
Dew Point: 35.6°F
Visibility: 10.00 mi


Airport Weather Forecast for KCOD

Translated METAR and TAF for KCOD
Translated METAR for KCOD (0022 UTC 02 October 2014)
found at http://aviationweather.gov/adds/metars/
 
METAR text: KCOD 020015Z AUTO 01008KT 10SM BKN050 OVC065 08/03 A3001 RMK AO1
Conditions at: KCOD (CODY , WY, US) observed 0015 UTC 02 October 2014
Temperature: 8.0°C (46°F)
Dewpoint: 3.0°C (37°F) [RH = 71%]
Pressure (altimeter): 30.01 inches Hg (1016.3 mb)
Winds: from the N (10 degrees) at 9 MPH (8 knots; 4.2 m/s)
Visibility: 10 or more miles (16+ km)
Ceiling: 5000 feet AGL
Clouds: broken clouds at 5000 feet AGL
overcast cloud deck at 6500 feet AGL
Weather: automated observation with no human augmentation;
there may or may not be significant weather present at this time
Translated TAF for KCOD
Forecast for: KCOD (CODY , WY, US)
TAF Text: KCOD 012327Z 0200/0224 VRB05KT P6SM SCT060 BKN080
Forecast period: 0000 to 0200 UTC 02 October 2014
Forecast type: FROM: standard forecast or significant change
Winds: variable direction winds at 6 MPH (5 knots; 2.6 m/s)
Visibility: 6 or more miles (10+ km)
Ceiling: 8000 feet AGL
Clouds: scattered clouds at 6000 feet AGL
broken clouds at 8000 feet AGL
Weather: no significant weather forecast for this period
TAF Text: FM020200 VRB05KT P6SM SCT080
Forecast period: 0200 to 0400 UTC 02 October 2014
Forecast type: FROM: standard forecast or significant change
Winds: variable direction winds at 6 MPH (5 knots; 2.6 m/s)
Visibility: 6 or more miles (10+ km)
Clouds: scattered clouds at 8000 feet AGL
Weather: no significant weather forecast for this period
TAF Text: FM020400 20006KT P6SM SKC
Forecast period: 0400 to 0800 UTC 02 October 2014
Forecast type: FROM: standard forecast or significant change
Winds: from the SSW (200 degrees) at 7 MPH (6 knots; 3.1 m/s)
Visibility: 6 or more miles (10+ km)
Clouds: clear skies
Weather: no significant weather forecast for this period
TAF Text: FM020800 26014G22KT P6SM SCT130
Forecast period: 0800 to 2000 UTC 02 October 2014
Forecast type: FROM: standard forecast or significant change
Winds: from the W (260 degrees) at 16 MPH (14 knots; 7.3 m/s)
gusting to 25 MPH (22 knots; 11.4 m/s)
Visibility: 6 or more miles (10+ km)
Clouds: scattered clouds at 13000 feet AGL
Weather: no significant weather forecast for this period
TAF Text: FM022000 01014G22KT P6SM SCT020 BKN060
Forecast period: 2000 to 2200 UTC 02 October 2014
Forecast type: FROM: standard forecast or significant change
Winds: from the N (10 degrees) at 16 MPH (14 knots; 7.3 m/s)
gusting to 25 MPH (22 knots; 11.4 m/s)
Visibility: 6 or more miles (10+ km)
Ceiling: 6000 feet AGL
Clouds: scattered clouds at 2000 feet AGL
broken clouds at 6000 feet AGL
Weather: no significant weather forecast for this period
TAF Text: FM022200 01016G26KT P6SM VCSH BKN020 AMD LTD TO CLD VIS AND WIND
Forecast period: 2200 UTC 02 October 2014 to 0000 UTC 03 October 2014
Forecast type: FROM: standard forecast or significant change
Winds: from the N (10 degrees) at 18 MPH (16 knots; 8.3 m/s)
gusting to 30 MPH (26 knots; 13.5 m/s)
Visibility: 6 or more miles (10+ km)
Ceiling: 2000 feet AGL
Clouds: broken clouds at 2000 feet AGL
Weather: VCSH  (showers in vicinity)

Find All Airport Services Find A Hotel Find A Rental Car Find A Golf Course Find A Restaurant $100 Hamburger



FBO's on the Field
FBO Company Facility Photos Services Transportation Aviation Fuel Prices: Prices include tax
Catering Weather Repair Courtesy Rental Type 100LL JetA JetA+ MOGAS 8087
 
Choice Aviation, LLC

This FBO has not yet been rated
FS:Avfuel
Last Updated: Aug-29
Login to update fuel prices
SS:
Contact Choice Aviation, LLCMore FBO Information
 
Add another FBO Facility Photos Catering Weather Repair Courtesy Rental Type 100LL JetA JetA+ MOGAS 8087
Services Transportation Aviation Fuel Prices: Prices include tax


model-print
model-print
model-print
model-print